createdAt,value
2022-11-05T00:01:46.024Z,61.98
2022-11-05T00:04:32.200Z,63.00
2022-11-05T00:07:19.323Z,65.64
2022-11-05T00:09:46.724Z,63.28
2022-11-05T00:12:32.636Z,62.24
2022-11-05T00:15:22.922Z,63.37
2022-11-05T00:17:50.044Z,60.98
2022-11-05T00:20:17.432Z,62.34
2022-11-05T00:23:03.142Z,64.10
2022-11-05T00:25:31.112Z,63.61
2022-11-05T00:28:00.473Z,63.63
2022-11-05T00:30:28.396Z,61.77
2022-11-05T00:32:59.784Z,63.72
2022-11-05T00:35:26.913Z,66.98
2022-11-05T00:37:54.099Z,65.27
2022-11-05T00:40:21.494Z,64.87
2022-11-05T00:43:06.986Z,63.68
2022-11-05T00:45:34.399Z,62.65
2022-11-05T00:48:20.084Z,60.80
2022-11-05T00:50:47.495Z,60.58
2022-11-05T00:53:14.815Z,60.48
2022-11-05T00:55:42.740Z,62.69
2022-11-05T00:58:12.974Z,61.98
2022-11-05T01:00:40.934Z,63.02
2022-11-05T01:03:09.580Z,64.16
2022-11-05T01:05:41.239Z,63.93
2022-11-05T01:08:09.799Z,63.58
2022-11-05T01:10:40.780Z,62.60
2022-11-05T01:13:12.666Z,62.78
2022-11-05T01:15:40.790Z,65.43
2022-11-05T01:18:07.900Z,64.19
2022-11-05T01:20:35.016Z,66.88
2022-11-05T01:23:02.421Z,65.39
2022-11-05T01:25:29.547Z,67.09
2022-11-05T01:27:56.686Z,68.04
2022-11-05T01:30:24.178Z,68.31
2022-11-05T01:32:51.306Z,67.13
2022-11-05T01:35:18.670Z,67.73
2022-11-05T01:37:46.066Z,65.16
2022-11-05T01:40:14.520Z,65.60
2022-11-05T01:42:41.636Z,67.35
2022-11-05T01:45:18.047Z,67.69
2022-11-05T01:48:03.881Z,67.08
2022-11-05T01:50:31.374Z,65.17
2022-11-05T01:53:03.681Z,63.36
2022-11-05T01:55:31.837Z,61.67
2022-11-05T01:57:58.983Z,64.62
2022-11-05T02:00:26.245Z,64.49
2022-11-05T02:02:53.773Z,62.87
2022-11-05T02:05:21.353Z,63.35
2022-11-05T02:07:48.480Z,64.15
2022-11-05T02:10:15.695Z,68.06
2022-11-05T02:12:43.893Z,65.15
2022-11-05T02:15:16.114Z,65.28
2022-11-05T02:18:02.675Z,66.46
2022-11-05T02:20:29.767Z,69.95
2022-11-05T02:22:57.113Z,67.93
2022-11-05T02:25:36.466Z,67.75
2022-11-05T02:28:42.394Z,70.21
2022-11-05T02:31:23.767Z,68.58
2022-11-05T02:33:57.032Z,69.03
2022-11-05T02:36:30.176Z,68.21
2022-11-05T02:39:27.109Z,67.97
2022-11-05T02:42:01.944Z,69.32
2022-11-05T02:44:34.773Z,68.98
2022-11-05T02:47:06.068Z,69.78
2022-11-05T02:49:38.398Z,66.41
2022-11-05T02:52:06.899Z,70.60
2022-11-05T02:54:34.317Z,68.60
2022-11-05T02:57:05.504Z,67.18
2022-11-05T02:59:32.766Z,68.78
2022-11-05T03:02:00.380Z,68.58
2022-11-05T03:04:27.611Z,67.56
2022-11-05T03:06:57.822Z,66.86
2022-11-05T03:09:32.107Z,70.47
2022-11-05T03:12:03.323Z,67.97
2022-11-05T03:14:30.651Z,69.84
2022-11-05T03:17:05.160Z,70.92
2022-11-05T03:19:49.429Z,68.46
2022-11-05T03:22:26.700Z,66.45
2022-11-05T03:25:13.013Z,69.34
2022-11-05T03:27:41.237Z,67.47
2022-11-05T03:30:09.537Z,67.18
2022-11-05T03:32:37.844Z,64.38
2022-11-05T03:35:13.024Z,62.72
2022-11-05T03:37:40.918Z,67.68
2022-11-05T03:40:08.540Z,68.89
2022-11-05T03:42:36.021Z,68.24
2022-11-05T03:45:06.462Z,70.11
2022-11-05T03:47:34.524Z,66.80
2022-11-05T03:50:08.397Z,68.40
2022-11-05T03:52:37.176Z,68.44
2022-11-05T03:55:04.454Z,65.91
2022-11-05T03:57:32.709Z,68.98
2022-11-05T04:00:00.120Z,68.42
2022-11-05T04:02:27.424Z,67.43
2022-11-05T04:04:54.938Z,65.77
2022-11-05T04:07:40.664Z,68.37
2022-11-05T04:10:27.907Z,67.56
2022-11-05T04:13:14.096Z,67.66
2022-11-05T04:15:59.977Z,65.01
2022-11-05T04:18:27.127Z,66.99
2022-11-05T04:21:13.402Z,65.33
2022-11-05T04:23:59.298Z,66.25
2022-11-05T04:26:26.686Z,65.98
2022-11-05T04:29:12.503Z,65.03
2022-11-05T04:31:39.880Z,61.97
2022-11-05T04:34:07.002Z,65.87
2022-11-05T04:36:34.093Z,66.07
2022-11-05T04:39:01.480Z,66.34
2022-11-05T04:41:28.601Z,67.47
2022-11-05T04:43:55.713Z,64.24
2022-11-05T04:46:23.101Z,61.34
2022-11-05T04:48:50.214Z,65.27
2022-11-05T04:51:17.427Z,67.94
2022-11-05T04:53:44.813Z,64.45
2022-11-05T04:56:12.881Z,64.64
2022-11-05T04:58:40.743Z,65.57
2022-11-05T05:01:18.487Z,68.14
2022-11-05T05:03:48.867Z,67.18
2022-11-05T05:06:16.584Z,67.04
2022-11-05T05:08:43.707Z,65.17
2022-11-05T05:11:11.581Z,64.83
2022-11-05T05:13:38.979Z,66.71
2022-11-05T05:16:07.253Z,66.92
2022-11-05T05:18:34.660Z,66.20
2022-11-05T05:21:21.140Z,65.41
2022-11-05T05:23:48.431Z,66.15
2022-11-05T05:26:16.202Z,65.23
2022-11-05T05:28:43.374Z,63.97
2022-11-05T05:31:10.580Z,62.67
2022-11-05T05:33:37.970Z,64.28
2022-11-05T05:36:10.930Z,63.60
2022-11-05T05:38:38.918Z,65.95
2022-11-05T05:41:06.069Z,65.38
2022-11-05T05:43:33.718Z,67.07
2022-11-05T05:46:01.868Z,67.29
2022-11-05T05:48:29.000Z,64.99
2022-11-05T05:50:59.774Z,65.02
2022-11-05T05:53:27.161Z,65.07
2022-11-05T05:55:54.899Z,65.76
2022-11-05T05:58:22.376Z,65.17
2022-11-05T06:00:49.797Z,66.10
2022-11-05T06:03:17.207Z,67.34
2022-11-05T06:05:44.343Z,64.29
2022-11-05T06:08:11.468Z,64.11
2022-11-05T06:10:38.875Z,67.28
2022-11-05T06:13:06.051Z,64.88
2022-11-05T06:15:35.907Z,62.53
2022-11-05T06:18:03.607Z,64.60
2022-11-05T06:20:30.722Z,63.39
2022-11-05T06:22:57.933Z,65.42
2022-11-05T06:25:25.407Z,65.70
2022-11-05T06:27:53.126Z,65.64
2022-11-05T06:30:21.731Z,65.43
2022-11-05T06:32:49.144Z,64.94
2022-11-05T06:35:16.247Z,61.79
2022-11-05T06:37:43.346Z,63.10
2022-11-05T06:40:10.850Z,59.73
2022-11-05T06:42:37.957Z,62.64
2022-11-05T06:45:05.336Z,62.63
2022-11-05T06:47:32.619Z,63.76
2022-11-05T06:49:59.720Z,63.54
2022-11-05T06:52:27.361Z,62.34
2022-11-05T06:54:54.756Z,63.95
2022-11-05T06:57:21.874Z,65.75
2022-11-05T06:59:49.005Z,65.70
2022-11-05T07:02:17.997Z,64.08
2022-11-05T07:04:45.228Z,63.40
2022-11-05T07:07:12.360Z,63.80
2022-11-05T07:09:43.026Z,63.92
2022-11-05T07:12:10.322Z,62.18
2022-11-05T07:14:37.472Z,62.25
2022-11-05T07:17:04.848Z,65.55
2022-11-05T07:19:31.969Z,63.44
2022-11-05T07:21:59.092Z,61.31
2022-11-05T07:24:26.495Z,64.14
2022-11-05T07:26:53.617Z,63.61
2022-11-05T07:29:20.821Z,63.93
2022-11-05T07:31:48.644Z,66.35
2022-11-05T07:34:15.803Z,64.81
2022-11-05T07:36:42.947Z,64.95
2022-11-05T07:39:10.405Z,65.86
2022-11-05T07:41:37.540Z,62.20
2022-11-05T07:44:04.672Z,63.26
2022-11-05T07:46:32.266Z,62.39
2022-11-05T07:48:59.402Z,61.01
2022-11-05T07:51:26.546Z,60.05
2022-11-05T07:53:54.005Z,62.17
2022-11-05T07:56:21.196Z,61.75
2022-11-05T07:58:48.329Z,61.02
2022-11-05T08:01:15.829Z,60.01
2022-11-05T08:03:43.419Z,59.57
2022-11-05T08:06:10.583Z,61.63
2022-11-05T08:08:37.705Z,61.22
2022-11-05T08:11:05.668Z,59.73
2022-11-05T08:13:33.187Z,61.87
2022-11-05T08:16:01.769Z,60.79
2022-11-05T08:18:32.129Z,60.78
2022-11-05T08:20:59.756Z,59.92
2022-11-05T08:23:27.516Z,61.21
2022-11-05T08:25:55.148Z,59.75
2022-11-05T08:28:22.314Z,61.08
2022-11-05T08:30:50.169Z,60.96
2022-11-05T08:33:17.557Z,59.31
2022-11-05T08:35:44.726Z,60.27
2022-11-05T08:38:15.554Z,59.94
2022-11-05T08:40:43.600Z,62.31
2022-11-05T08:43:11.220Z,60.53
2022-11-05T08:45:38.703Z,60.42
2022-11-05T08:48:07.225Z,63.42
2022-11-05T08:50:34.567Z,61.19
2022-11-05T08:53:01.769Z,60.68
2022-11-05T08:55:30.206Z,61.44
2022-11-05T08:57:58.125Z,61.05
2022-11-05T09:00:25.469Z,60.77
2022-11-05T09:02:52.933Z,62.25
2022-11-05T09:05:20.193Z,60.09
2022-11-05T09:07:47.303Z,61.19
2022-11-05T09:10:14.844Z,62.40
2022-11-05T09:12:42.013Z,60.00
2022-11-05T09:15:09.291Z,58.76
2022-11-05T09:17:36.648Z,61.76
2022-11-05T09:20:04.451Z,59.20
2022-11-05T09:22:31.561Z,56.60
2022-11-05T09:24:59.028Z,60.36
2022-11-05T09:27:26.586Z,60.18
2022-11-05T09:29:53.714Z,59.22
2022-11-05T09:32:21.988Z,60.34
2022-11-05T09:34:50.096Z,59.57
2022-11-05T09:37:17.198Z,59.70
2022-11-05T09:39:44.608Z,57.83
2022-11-05T09:42:12.152Z,59.59
2022-11-05T09:45:11.861Z,58.68
2022-11-05T09:47:40.724Z,60.08
2022-11-05T09:50:09.169Z,57.92
2022-11-05T09:52:36.343Z,59.80
2022-11-05T09:55:04.356Z,58.87
2022-11-05T09:57:42.008Z,61.86
2022-11-05T10:00:16.476Z,61.06
2022-11-05T10:02:49.984Z,60.26
2022-11-05T10:05:18.502Z,57.80
2022-11-05T10:07:55.994Z,57.88
2022-11-05T10:10:29.001Z,59.09
2022-11-05T10:12:57.373Z,58.85
2022-11-05T10:15:34.901Z,59.01
2022-11-05T10:18:03.633Z,59.38
2022-11-05T10:20:34.018Z,59.70
2022-11-05T10:23:12.767Z,58.83
2022-11-05T10:25:41.544Z,58.70
2022-11-05T10:28:10.057Z,60.84
2022-11-05T10:30:37.153Z,59.38
2022-11-05T10:33:05.171Z,57.96
2022-11-05T10:35:33.302Z,59.79
2022-11-05T10:38:00.429Z,59.78
2022-11-05T10:40:27.725Z,60.21
2022-11-05T10:43:05.604Z,60.08
2022-11-05T10:45:42.781Z,62.17
2022-11-05T10:48:24.588Z,60.53
2022-11-05T10:50:51.727Z,58.73
2022-11-05T10:53:39.297Z,58.26
2022-11-05T10:56:26.704Z,58.12
2022-11-05T10:58:56.521Z,57.78
2022-11-05T11:01:24.838Z,55.87
2022-11-05T11:04:03.726Z,57.77
2022-11-05T11:06:32.134Z,57.61
2022-11-05T11:09:01.093Z,55.59
2022-11-05T11:11:28.543Z,57.34
2022-11-05T11:14:02.316Z,58.37
2022-11-05T11:16:32.157Z,60.00
2022-11-05T11:19:03.319Z,59.46
2022-11-05T11:21:31.240Z,58.56
2022-11-05T11:24:06.965Z,58.50
2022-11-05T11:26:37.716Z,58.11
2022-11-05T11:29:04.757Z,58.31
2022-11-05T11:31:32.091Z,55.93
2022-11-05T11:34:03.591Z,58.14
2022-11-05T11:36:35.232Z,58.52
2022-11-05T11:39:04.463Z,58.04
2022-11-05T11:41:33.423Z,58.21
2022-11-05T11:44:03.154Z,58.71
2022-11-05T11:46:31.641Z,60.07
2022-11-05T11:48:58.758Z,60.03
2022-11-05T11:51:25.809Z,59.21
2022-11-05T11:53:55.886Z,56.80
2022-11-05T11:56:23.294Z,57.53
2022-11-05T11:58:52.381Z,58.08
2022-11-05T12:01:38.812Z,58.17
2022-11-05T12:04:21.276Z,58.95
2022-11-05T12:06:48.330Z,57.17
2022-11-05T12:09:25.191Z,56.63
2022-11-05T12:11:52.376Z,56.75
2022-11-05T12:14:43.660Z,55.54
2022-11-05T12:17:22.450Z,56.03
2022-11-05T12:20:05.257Z,57.08
2022-11-05T12:22:36.751Z,57.62
2022-11-05T12:25:30.269Z,56.47
2022-11-05T12:28:12.760Z,56.22
2022-11-05T12:30:43.083Z,55.50
2022-11-05T12:33:15.218Z,57.10
2022-11-05T12:35:56.458Z,57.49
2022-11-05T12:38:45.310Z,57.30
2022-11-05T12:41:12.704Z,56.35
2022-11-05T12:43:56.909Z,57.52
2022-11-05T12:46:27.308Z,55.68
2022-11-05T12:49:00.349Z,55.12
2022-11-05T12:51:30.858Z,55.16
2022-11-05T12:54:00.971Z,53.17
2022-11-05T12:56:40.653Z,52.90
2022-11-05T12:59:19.230Z,55.67
2022-11-05T13:01:49.235Z,52.07
2022-11-05T13:04:35.363Z,50.67
2022-11-05T13:07:03.631Z,51.84
2022-11-05T13:09:33.966Z,55.77
2022-11-05T13:12:04.554Z,53.44
2022-11-05T13:14:40.757Z,57.63
2022-11-05T13:17:12.778Z,56.43
2022-11-05T13:19:43.582Z,56.88
2022-11-05T13:22:16.487Z,55.77
2022-11-05T13:24:47.803Z,54.29
2022-11-05T13:27:34.292Z,53.37
2022-11-05T13:30:06.019Z,54.96
2022-11-05T13:32:35.328Z,56.48
2022-11-05T13:35:04.130Z,55.78
2022-11-05T13:37:50.351Z,55.14
2022-11-05T13:40:19.232Z,54.14
2022-11-05T13:42:52.951Z,55.29
2022-11-05T13:45:23.116Z,54.86
2022-11-05T13:48:10.429Z,56.25
2022-11-05T13:50:56.897Z,56.86
2022-11-05T13:53:24.083Z,57.08
2022-11-05T13:55:54.246Z,56.34
2022-11-05T13:58:50.525Z,56.55
2022-11-05T14:01:36.300Z,55.23
2022-11-05T14:04:03.883Z,58.35
2022-11-05T14:06:35.139Z,57.32
2022-11-05T14:09:03.755Z,57.29
2022-11-05T14:11:50.339Z,56.32
2022-11-05T14:14:22.024Z,56.63
2022-11-05T14:16:54.337Z,54.70
2022-11-05T14:19:29.645Z,56.29
2022-11-05T14:21:59.073Z,56.86
2022-11-05T14:24:45.736Z,59.48
2022-11-05T14:27:13.166Z,57.70
2022-11-05T14:29:44.444Z,59.24
2022-11-05T14:32:17.520Z,57.67
2022-11-05T14:34:54.135Z,59.13
2022-11-05T14:37:23.124Z,57.24
2022-11-05T14:39:50.920Z,56.66
2022-11-05T14:42:31.950Z,58.58
2022-11-05T14:45:19.138Z,55.78
2022-11-05T14:47:53.927Z,58.03
2022-11-05T14:50:24.131Z,58.29
2022-11-05T14:52:52.774Z,57.67
2022-11-05T14:55:25.476Z,55.25
2022-11-05T14:57:53.122Z,56.87
2022-11-05T15:00:29.757Z,59.11
2022-11-05T15:03:05.587Z,58.52
2022-11-05T15:05:48.249Z,57.85
2022-11-05T15:08:27.850Z,56.69
2022-11-05T15:10:56.893Z,56.60
2022-11-05T15:13:34.779Z,57.00
2022-11-05T15:16:03.754Z,57.86
2022-11-05T15:18:36.934Z,55.44
2022-11-05T15:21:04.921Z,56.35
2022-11-05T15:23:36.654Z,57.00
2022-11-05T15:26:22.896Z,56.34
2022-11-05T15:28:51.158Z,56.43
2022-11-05T15:31:24.947Z,56.16
2022-11-05T15:33:57.510Z,55.33
2022-11-05T15:36:29.257Z,56.15
2022-11-05T15:39:27.373Z,57.90
2022-11-05T15:41:44.543Z,56.78
2022-11-05T15:44:25.811Z,56.78
2022-11-05T15:47:14.198Z,57.77
2022-11-05T15:49:42.530Z,57.58
2022-11-05T15:52:13.565Z,56.86
2022-11-05T15:54:41.191Z,58.55
2022-11-05T15:57:20.232Z,58.56
2022-11-05T15:59:47.363Z,57.76
2022-11-05T16:02:20.877Z,58.67
2022-11-05T16:04:49.142Z,59.25
2022-11-05T16:07:16.897Z,57.57
2022-11-05T16:09:51.159Z,58.13
2022-11-05T16:12:18.635Z,58.06
2022-11-05T16:15:18.085Z,56.47
2022-11-05T16:17:50.908Z,57.75
2022-11-05T16:20:18.203Z,58.32
2022-11-05T16:22:46.489Z,58.39
2022-11-05T16:25:22.813Z,56.94
2022-11-05T16:27:50.280Z,59.56
2022-11-05T16:30:18.313Z,61.04
2022-11-05T16:32:46.407Z,59.29
2022-11-05T16:35:16.683Z,60.63
2022-11-05T16:37:49.176Z,59.09
2022-11-05T16:40:21.174Z,57.70
2022-11-05T16:42:51.743Z,59.53
2022-11-05T16:45:21.169Z,58.69
2022-11-05T16:47:48.535Z,58.39
2022-11-05T16:50:24.522Z,57.93
2022-11-05T16:52:52.535Z,58.28
2022-11-05T16:55:20.133Z,58.73
2022-11-05T16:57:49.165Z,59.05
2022-11-05T17:00:17.579Z,58.97
2022-11-05T17:02:46.048Z,58.06
2022-11-05T17:05:16.649Z,60.68
2022-11-05T17:07:44.630Z,60.65
2022-11-05T17:10:12.248Z,59.21
2022-11-05T17:12:39.846Z,59.80
2022-11-05T17:15:35.823Z,60.11
2022-11-05T17:18:04.187Z,58.87
2022-11-05T17:20:38.544Z,57.94
2022-11-05T17:23:08.450Z,60.89
2022-11-05T17:25:39.305Z,59.04
2022-11-05T17:28:07.860Z,60.77
2022-11-05T17:30:35.450Z,60.03
2022-11-05T17:33:06.543Z,60.60
2022-11-05T17:35:34.432Z,59.65
2022-11-05T17:38:02.103Z,59.55
2022-11-05T17:40:30.761Z,60.66
2022-11-05T17:42:58.374Z,57.92
2022-11-05T17:45:25.849Z,56.39
2022-11-05T17:47:53.801Z,60.47
2022-11-05T17:50:21.573Z,61.49
2022-11-05T17:52:49.081Z,62.41
2022-11-05T17:55:17.608Z,64.78
2022-11-05T17:57:48.970Z,64.16
2022-11-05T18:00:17.484Z,59.57
2022-11-05T18:02:46.881Z,61.31
2022-11-05T18:05:14.665Z,62.64
2022-11-05T18:07:42.503Z,63.75
2022-11-05T18:10:11.301Z,61.47
2022-11-05T18:12:39.050Z,61.77
2022-11-05T18:15:07.241Z,63.11
2022-11-05T18:17:36.347Z,63.06
2022-11-05T18:20:06.157Z,61.79
2022-11-05T18:22:34.255Z,63.18
2022-11-05T18:25:02.210Z,63.90
2022-11-05T18:27:29.553Z,63.46
2022-11-05T18:29:57.574Z,63.52
2022-11-05T18:32:25.485Z,61.50
2022-11-05T18:34:53.115Z,59.68
2022-11-05T18:37:21.556Z,60.04
2022-11-05T18:39:51.004Z,63.96
2022-11-05T18:42:20.468Z,63.40
2022-11-05T18:44:48.410Z,61.99
2022-11-05T18:47:16.834Z,60.05
2022-11-05T18:49:44.709Z,59.46
2022-11-05T18:52:14.943Z,60.46
2022-11-05T18:54:43.610Z,59.69
2022-11-05T18:57:10.821Z,61.05
2022-11-05T18:59:39.667Z,60.85
2022-11-05T19:02:14.427Z,61.62
2022-11-05T19:05:00.389Z,62.93
2022-11-05T19:07:32.833Z,59.63
2022-11-05T19:10:00.340Z,61.27
2022-11-05T19:12:27.733Z,59.46
2022-11-05T19:15:02.818Z,59.20
2022-11-05T19:17:32.309Z,59.18
2022-11-05T19:20:00.408Z,60.43
2022-11-05T19:22:31.240Z,60.64
2022-11-05T19:24:58.998Z,59.31
2022-11-05T19:27:27.012Z,60.77
2022-11-05T19:29:55.324Z,60.52
2022-11-05T19:32:23.486Z,59.60
2022-11-05T19:34:53.572Z,62.70
2022-11-05T19:37:21.633Z,61.08
2022-11-05T19:39:49.406Z,63.58
2022-11-05T19:42:17.959Z,63.71
2022-11-05T19:44:46.721Z,61.84
2022-11-05T19:47:14.474Z,60.97
2022-11-05T19:49:42.832Z,61.21
2022-11-05T19:52:10.482Z,63.05
2022-11-05T19:54:38.257Z,62.79
2022-11-05T19:57:06.920Z,60.12
2022-11-05T19:59:34.689Z,61.86
2022-11-05T20:02:02.162Z,62.89
2022-11-05T20:04:30.172Z,63.07
2022-11-05T20:06:58.043Z,61.85
2022-11-05T20:09:25.882Z,61.65
2022-11-05T20:11:55.048Z,61.50
2022-11-05T20:14:23.228Z,61.31
2022-11-05T20:16:51.223Z,60.89
2022-11-05T20:19:21.942Z,62.33
2022-11-05T20:21:49.689Z,63.62
2022-11-05T20:24:23.765Z,63.85
2022-11-05T20:26:53.386Z,62.94
2022-11-05T20:29:21.853Z,61.82
2022-11-05T20:31:49.552Z,61.92
2022-11-05T20:34:18.228Z,62.27
2022-11-05T20:36:45.605Z,63.50
2022-11-05T20:39:13.266Z,62.90
2022-11-05T20:41:41.252Z,63.58
2022-11-05T20:44:08.941Z,64.32
2022-11-05T20:46:36.285Z,62.42
2022-11-05T20:49:04.210Z,63.54
2022-11-05T20:51:31.551Z,64.22
2022-11-05T20:53:59.897Z,64.50
2022-11-05T20:56:29.843Z,63.63
2022-11-05T20:58:59.687Z,61.31
2022-11-05T21:01:31.118Z,60.31
2022-11-05T21:03:59.920Z,64.67
2022-11-05T21:06:28.472Z,63.48
2022-11-05T21:08:55.724Z,61.98
2022-11-05T21:11:23.378Z,63.09
2022-11-05T21:13:50.944Z,64.74
2022-11-05T21:16:19.263Z,64.53
2022-11-05T21:18:47.573Z,58.85
2022-11-05T21:21:17.684Z,60.96
2022-11-05T21:23:45.220Z,61.70
2022-11-05T21:26:13.573Z,60.86
2022-11-05T21:28:41.431Z,61.48
2022-11-05T21:31:09.859Z,61.84
2022-11-05T21:33:37.608Z,63.47
2022-11-05T21:36:05.951Z,59.93
2022-11-05T21:38:33.346Z,60.18
2022-11-05T21:41:02.064Z,61.52
2022-11-05T21:43:29.330Z,60.92
2022-11-05T21:46:00.257Z,63.76
2022-11-05T21:48:28.085Z,62.73
2022-11-05T21:51:14.332Z,59.99
2022-11-05T21:54:00.829Z,62.55
2022-11-05T21:56:46.529Z,59.89
2022-11-05T21:59:33.911Z,62.26
2022-11-05T22:02:04.269Z,63.69
2022-11-05T22:04:32.943Z,61.60
2022-11-05T22:07:00.193Z,62.40
2022-11-05T22:09:27.470Z,62.71
2022-11-05T22:11:55.000Z,63.89
2022-11-05T22:14:22.343Z,62.26
2022-11-05T22:16:49.510Z,60.60
2022-11-05T22:19:17.338Z,62.67
2022-11-05T22:21:45.404Z,62.04
2022-11-05T22:24:12.524Z,60.86
2022-11-05T22:26:39.922Z,63.48
2022-11-05T22:29:07.146Z,62.63
2022-11-05T22:31:36.822Z,62.16
2022-11-05T22:34:04.893Z,62.18
2022-11-05T22:36:32.646Z,58.16
2022-11-05T22:38:59.749Z,58.83
2022-11-05T22:41:27.257Z,60.35
2022-11-05T22:43:54.594Z,60.74
2022-11-05T22:46:22.534Z,61.02
2022-11-05T22:48:50.137Z,61.14
2022-11-05T22:51:18.567Z,63.42
2022-11-05T22:53:45.694Z,61.93
2022-11-05T22:56:13.808Z,62.97
2022-11-05T22:58:41.144Z,62.21
2022-11-05T23:01:09.300Z,60.22
2022-11-05T23:03:36.756Z,62.08
2022-11-05T23:06:05.281Z,62.24
2022-11-05T23:08:51.214Z,64.41
2022-11-05T23:11:38.728Z,61.56
2022-11-05T23:14:06.654Z,61.35
2022-11-05T23:16:52.858Z,60.43
2022-11-05T23:19:38.813Z,59.50
2022-11-05T23:22:27.944Z,58.58
2022-11-05T23:24:55.061Z,58.10
2022-11-05T23:27:22.446Z,58.88
2022-11-05T23:29:49.622Z,61.87
2022-11-05T23:32:25.829Z,59.42
2022-11-05T23:34:53.837Z,59.79
2022-11-05T23:37:40.715Z,61.36
2022-11-05T23:40:09.487Z,59.07
2022-11-05T23:42:55.169Z,58.12
2022-11-05T23:45:41.279Z,57.82
2022-11-05T23:48:31.671Z,60.12
2022-11-05T23:51:00.292Z,56.58
2022-11-05T23:53:27.559Z,57.31
2022-11-05T23:55:58.389Z,57.42
2022-11-05T23:58:25.788Z,57.46
